Time;durP1;ratioP1;P1;durP2;ratioP2;P2;SDS_P1;SDS_P2;PMS_P1;PMS_P2;Temp;Humidity;BMP_temperature;BMP_pressure;BME280_temperature;BME280_humidity;BME280_pressure;Samples;Min_cycle;Max_cycle;Signal;HPM_P1;HPM_P2
2022/03/29 00:00:17;;;;;;;22.50;18.30;;;8.70;99.90;;;;;;4981874;28;20080;-91
2022/03/29 00:02:43;;;;;;;23.02;18.63;;;8.60;99.90;;;;;;4981830;28;20118;-91
2022/03/29 00:05:10;;;;;;;27.25;20.17;;;8.60;99.90;;;;;;4981566;28;20030;-91
2022/03/29 00:07:36;;;;;;;22.85;18.20;;;8.60;99.90;;;;;;4980596;28;20030;-92
2022/03/29 00:10:06;;;;;;;23.48;19.17;;;8.50;99.90;;;;;;4980514;28;20127;-92
2022/03/29 00:12:36;;;;;;;26.77;20.73;;;8.50;99.90;;;;;;4980786;28;20023;-92
2022/03/29 00:15:05;;;;;;;23.35;19.05;;;8.40;99.90;;;;;;4980879;28;20101;-91
2022/03/29 00:17:32;;;;;;;20.63;17.55;;;8.40;99.90;;;;;;4980013;28;20048;-92
2022/03/29 00:19:58;;;;;;;22.73;18.50;;;8.30;99.90;;;;;;4997540;28;20058;-91
2022/03/29 00:22:24;;;;;;;23.23;18.15;;;8.30;99.90;;;;;;4980260;28;20057;-89
2022/03/29 00:24:50;;;;;;;20.60;17.23;;;8.30;99.90;;;;;;4980833;28;20034;-89
2022/03/29 00:27:16;;;;;;;23.58;17.10;;;8.20;99.90;;;;;;4980335;28;20078;-90
2022/03/29 00:29:42;;;;;;;21.20;17.73;;;8.20;99.90;;;;;;4980288;28;20023;-91
2022/03/29 00:32:07;;;;;;;21.75;17.58;;;8.20;99.90;;;;;;4979705;28;20049;-90
2022/03/29 00:34:36;;;;;;;23.02;19.52;;;8.10;99.90;;;;;;4980273;28;20469;-91
2022/03/29 00:37:03;;;;;;;21.77;17.55;;;8.10;99.90;;;;;;4997294;28;20018;-90
2022/03/29 00:39:28;;;;;;;22.15;16.65;;;8.00;99.90;;;;;;4996994;28;20030;-90
2022/03/29 00:41:55;;;;;;;22.60;16.90;;;8.00;99.90;;;;;;4979915;28;20061;-90
2022/03/29 00:44:29;;;;;;;22.33;16.80;;;8.00;99.90;;;;;;4979825;28;20023;-91
2022/03/29 00:46:55;;;;;;;25.70;19.73;;;7.90;99.90;;;;;;4979283;28;20053;-91
2022/03/29 00:49:20;;;;;;;23.88;18.42;;;7.90;99.90;;;;;;4980463;28;20085;-90
2022/03/29 00:51:46;;;;;;;22.40;18.23;;;7.90;99.90;;;;;;4979176;28;20018;-90
2022/03/29 00:54:12;;;;;;;22.50;17.52;;;8.00;99.90;;;;;;4976143;28;20059;-89
2022/03/29 00:56:39;;;;;;;24.98;19.25;;;8.10;99.90;;;;;;4977706;28;20034;-90
2022/03/29 00:59:04;;;;;;;25.25;18.23;;;8.10;99.90;;;;;;4975688;28;20030;-89
2022/03/29 01:01:30;;;;;;;26.75;19.42;;;8.10;99.90;;;;;;4975765;28;20035;-88
2022/03/29 01:03:57;;;;;;;29.92;22.85;;;8.20;99.90;;;;;;4944173;28;20053;-90
2022/03/29 01:06:23;;;;;;;29.40;22.67;;;8.20;99.90;;;;;;4977278;28;20027;-90
2022/03/29 01:08:50;;;;;;;25.92;20.77;;;8.10;99.90;;;;;;4975737;28;20113;-90
2022/03/29 01:11:16;;;;;;;31.80;23.52;;;8.10;99.90;;;;;;4975132;28;20385;-90
2022/03/29 01:13:42;;;;;;;30.98;23.35;;;8.10;99.90;;;;;;4993365;28;20018;-92
2022/03/29 01:18:53;;;;;;;31.17;23.45;;;8.10;99.90;;;;;;4980225;28;20037;-89
2022/03/29 01:21:22;;;;;;;30.92;23.35;;;8.10;99.90;;;;;;4985895;28;20066;-88
2022/03/29 01:23:49;;;;;;;29.52;21.90;;;8.00;99.90;;;;;;4977869;28;20046;-89
2022/03/29 01:26:18;;;;;;;25.77;20.33;;;8.00;99.90;;;;;;4978785;28;20062;-89
2022/03/29 01:28:44;;;;;;;26.55;20.38;;;8.00;99.90;;;;;;4981542;28;20098;-89
2022/03/29 01:31:11;;;;;;;28.02;21.08;;;8.00;99.90;;;;;;4979257;28;20034;-91
2022/03/29 01:33:38;;;;;;;29.98;21.42;;;8.10;99.90;;;;;;4993932;28;20025;-89
2022/03/29 01:36:04;;;;;;;30.55;22.40;;;8.10;99.90;;;;;;4978192;28;20042;-92
2022/03/29 01:38:30;;;;;;;29.75;22.55;;;8.00;99.90;;;;;;4979622;28;20027;-89
2022/03/29 01:41:05;;;;;;;30.70;23.65;;;8.00;99.90;;;;;;4978072;28;20027;-90
2022/03/29 01:43:31;;;;;;;31.27;23.73;;;8.00;99.90;;;;;;4977481;28;20030;-90
2022/03/29 01:45:57;;;;;;;32.45;24.63;;;7.90;99.90;;;;;;4994345;28;20019;-89
2022/03/29 01:48:24;;;;;;;31.95;24.27;;;7.90;99.90;;;;;;4978079;28;20041;-90
2022/03/29 01:50:50;;;;;;;30.65;23.52;;;7.90;99.90;;;;;;4976126;28;20018;-92
2022/03/29 01:53:27;;;;;;;27.95;21.88;;;7.90;99.90;;;;;;4977289;28;20469;-90
2022/03/29 01:56:00;;;;;;;27.30;21.08;;;7.90;99.90;;;;;;4991324;28;20047;-92
2022/03/29 01:58:29;;;;;;;26.83;20.05;;;7.90;99.90;;;;;;4976586;28;20022;-89
2022/03/29 02:00:55;;;;;;;24.88;19.08;;;7.90;99.90;;;;;;4976753;28;20043;-91
2022/03/29 02:03:22;;;;;;;25.73;19.30;;;7.90;99.90;;;;;;4976449;28;20114;-89
2022/03/29 02:05:48;;;;;;;26.45;19.48;;;7.90;99.90;;;;;;4991555;28;20366;-90
2022/03/29 02:08:16;;;;;;;26.45;20.38;;;7.90;99.90;;;;;;4975333;28;20381;-91
2022/03/29 02:10:42;;;;;;;27.10;20.52;;;8.00;99.90;;;;;;4975654;28;20033;-91
2022/03/29 02:13:11;;;;;;;27.98;21.23;;;8.00;99.90;;;;;;4975568;28;20116;-90
2022/03/29 02:15:38;;;;;;;27.45;20.67;;;8.00;99.90;;;;;;4975457;28;20038;-89
2022/03/29 02:18:05;;;;;;;29.65;21.92;;;7.90;99.90;;;;;;4974948;28;20023;-90
2022/03/29 02:20:31;;;;;;;29.38;22.10;;;7.90;99.90;;;;;;4976127;28;20035;-90
2022/03/29 02:23:02;;;;;;;31.45;23.35;;;7.90;99.90;;;;;;4976847;28;20467;-90
2022/03/29 02:25:28;;;;;;;31.45;23.38;;;7.80;99.90;;;;;;4978935;28;20031;-89
2022/03/29 02:27:55;;;;;;;27.83;21.10;;;7.70;99.90;;;;;;4979728;28;20027;-92
2022/03/29 02:30:20;;;;;;;29.75;22.23;;;7.70;99.90;;;;;;4979508;28;20062;-92
2022/03/29 02:32:46;;;;;;;27.13;20.02;;;7.80;99.90;;;;;;4980613;28;20030;-91
2022/03/29 02:35:12;;;;;;;26.55;19.70;;;7.80;99.90;;;;;;4979473;28;20038;-91
2022/03/29 02:37:38;;;;;;;29.23;22.27;;;7.80;99.90;;;;;;4979628;28;20023;-93
2022/03/29 02:40:05;;;;;;;29.15;22.13;;;7.80;99.90;;;;;;4979303;28;20504;-91
2022/03/29 02:42:32;;;;;;;27.90;21.35;;;7.80;99.90;;;;;;4978203;28;20018;-89
2022/03/29 02:44:58;;;;;;;26.65;19.98;;;7.80;99.90;;;;;;4978731;28;20085;-90
2022/03/29 02:47:23;;;;;;;28.27;21.30;;;7.80;99.90;;;;;;4978232;28;20023;-91
2022/03/29 02:49:49;;;;;;;27.85;20.95;;;7.80;99.90;;;;;;4979662;28;20037;-90
2022/03/29 02:52:15;;;;;;;30.52;23.30;;;7.80;99.90;;;;;;4980642;28;20027;-88
2022/03/29 02:54:41;;;;;;;28.48;21.17;;;7.70;99.90;;;;;;4980841;28;20061;-92
2022/03/29 02:57:09;;;;;;;32.50;24.58;;;7.80;99.90;;;;;;4979760;28;20026;-91
2022/03/29 02:59:35;;;;;;;30.02;22.95;;;7.70;99.90;;;;;;4981236;28;20162;-89
2022/03/29 03:02:01;;;;;;;31.10;23.52;;;7.60;99.90;;;;;;4985131;28;20534;-89
2022/03/29 03:04:26;;;;;;;28.67;21.63;;;7.60;99.90;;;;;;4976440;28;20145;-91
2022/03/29 03:06:52;;;;;;;26.67;19.15;;;7.60;99.90;;;;;;4988254;28;20043;-90
2022/03/29 03:09:18;;;;;;;30.88;21.38;;;7.60;99.90;;;;;;4981380;28;20106;-91
2022/03/29 03:11:44;;;;;;;29.08;22.33;;;7.70;99.90;;;;;;4981534;28;20126;-89
2022/03/29 03:14:09;;;;;;;31.17;22.35;;;7.60;99.90;;;;;;4981535;28;20058;-89
2022/03/29 03:16:35;;;;;;;26.58;19.88;;;7.60;99.90;;;;;;4983609;28;20050;-89
2022/03/29 03:19:01;;;;;;;25.30;18.85;;;7.60;99.90;;;;;;4982610;28;20030;-88
2022/03/29 03:21:26;;;;;;;24.95;18.33;;;7.60;99.90;;;;;;4979299;28;20039;-91
2022/03/29 03:23:52;;;;;;;24.92;17.50;;;7.60;99.90;;;;;;4980055;28;20027;-91
2022/03/29 03:26:18;;;;;;;21.35;15.70;;;7.70;99.90;;;;;;4980418;28;20056;-92
2022/03/29 03:28:44;;;;;;;21.50;16.42;;;7.70;99.90;;;;;;4982107;28;20594;-91
2022/03/29 03:31:12;;;;;;;23.67;17.63;;;7.70;99.90;;;;;;4980444;28;20034;-93
2022/03/29 03:33:38;;;;;;;21.33;16.17;;;7.70;99.90;;;;;;4980187;28;20469;-91
2022/03/29 03:36:04;;;;;;;27.02;19.35;;;7.70;99.90;;;;;;4984065;28;20057;-91
2022/03/29 03:38:29;;;;;;;21.70;16.48;;;7.70;99.90;;;;;;4983150;28;20091;-92
2022/03/29 03:40:55;;;;;;;23.83;17.67;;;7.70;99.90;;;;;;4989663;28;20030;-92
2022/03/29 03:43:21;;;;;;;26.77;18.92;;;7.60;99.90;;;;;;4994205;28;20114;-87
2022/03/29 03:45:46;;;;;;;24.77;17.63;;;7.60;99.90;;;;;;4999599;28;20034;-90
2022/03/29 03:48:12;;;;;;;24.73;18.52;;;7.60;99.90;;;;;;5000065;28;20023;-90
2022/03/29 03:50:38;;;;;;;25.50;18.35;;;7.60;99.90;;;;;;4999130;28;20023;-88
2022/03/29 03:53:04;;;;;;;24.50;17.50;;;7.60;99.90;;;;;;4999229;28;20038;-89
2022/03/29 03:55:29;;;;;;;23.63;17.30;;;7.60;99.90;;;;;;5000068;28;20035;-90
2022/03/29 03:57:55;;;;;;;21.60;15.40;;;7.60;99.90;;;;;;5000513;28;20027;-91
2022/03/29 04:00:21;;;;;;;24.65;18.67;;;7.70;99.90;;;;;;5000371;28;20481;-88
2022/03/29 04:02:49;;;;;;;25.50;18.48;;;7.60;99.90;;;;;;4999206;28;20073;-89
2022/03/29 04:05:15;;;;;;;27.73;19.08;;;7.50;99.90;;;;;;4986630;28;20081;-91
2022/03/29 04:07:43;;;;;;;26.63;19.45;;;7.50;99.90;;;;;;4994994;28;20011;-91
2022/03/29 04:10:09;;;;;;;33.45;21.27;;;7.40;99.90;;;;;;4996827;28;20018;-90
2022/03/29 04:12:36;;;;;;;29.83;20.75;;;7.40;99.90;;;;;;4988441;28;20026;-90
2022/03/29 04:15:03;;;;;;;28.05;20.52;;;7.30;99.90;;;;;;4982921;28;20114;-90
2022/03/29 04:17:28;;;;;;;27.15;20.63;;;7.30;99.90;;;;;;4983908;28;20062;-89
2022/03/29 04:19:55;;;;;;;25.40;19.20;;;7.20;99.90;;;;;;4986204;28;20023;-89
2022/03/29 04:22:20;;;;;;;25.15;18.23;;;7.20;99.90;;;;;;4984412;28;20046;-88
2022/03/29 04:24:47;;;;;;;25.63;17.15;;;7.20;99.90;;;;;;4984247;28;20027;-93
2022/03/29 04:27:13;;;;;;;23.85;17.48;;;7.30;99.90;;;;;;4982850;28;20031;-90
2022/03/29 04:29:38;;;;;;;22.38;15.82;;;7.30;99.90;;;;;;4982414;28;20053;-90
2022/03/29 04:32:04;;;;;;;22.60;15.80;;;7.30;99.90;;;;;;4984725;28;20031;-88
2022/03/29 04:34:37;;;;;;;25.75;17.88;;;7.40;99.90;;;;;;4984789;28;20022;-88
2022/03/29 04:37:03;;;;;;;25.08;17.08;;;7.40;99.90;;;;;;4988592;28;20042;-89
2022/03/29 04:39:30;;;;;;;23.98;17.30;;;7.40;99.90;;;;;;4979872;28;20389;-90
2022/03/29 04:41:57;;;;;;;25.08;16.55;;;7.40;99.90;;;;;;4977765;28;20117;-92
2022/03/29 04:44:27;;;;;;;26.45;18.17;;;7.40;99.90;;;;;;4978608;28;20086;-87
2022/03/29 04:46:53;;;;;;;30.88;18.00;;;7.40;99.90;;;;;;4983324;28;20023;-91
2022/03/29 04:49:18;;;;;;;23.48;17.15;;;7.40;99.90;;;;;;4978035;28;20030;-92
2022/03/29 04:51:47;;;;;;;31.48;20.58;;;7.40;99.90;;;;;;4982532;28;20485;-92
2022/03/29 04:54:14;;;;;;;30.20;19.88;;;7.30;99.90;;;;;;4986101;28;20108;-88
2022/03/29 04:56:42;;;;;;;27.98;20.15;;;7.30;99.90;;;;;;4987132;28;20038;-89
2022/03/29 04:59:08;;;;;;;27.50;19.55;;;7.30;99.90;;;;;;4983984;28;20023;-92
2022/03/29 05:01:36;;;;;;;25.75;18.15;;;7.20;99.90;;;;;;4979800;28;20026;-91
2022/03/29 05:04:03;;;;;;;26.38;19.15;;;7.30;99.90;;;;;;4984162;28;20087;-94
2022/03/29 05:06:28;;;;;;;24.90;17.85;;;7.30;99.90;;;;;;4981851;28;20038;-93
2022/03/29 05:08:54;;;;;;;25.80;17.13;;;7.30;99.90;;;;;;4979280;28;20031;-92
2022/03/29 05:11:20;;;;;;;28.88;19.02;;;7.30;99.90;;;;;;4978469;28;20116;-93
2022/03/29 05:13:45;;;;;;;29.27;19.55;;;7.30;99.90;;;;;;4979136;28;20034;-94
2022/03/29 05:16:21;;;;;;;27.88;18.63;;;7.40;99.90;;;;;;4978612;28;20041;-86
2022/03/29 05:18:54;;;;;;;26.30;17.80;;;7.40;99.90;;;;;;4985765;28;20465;-86
2022/03/29 05:21:21;;;;;;;27.55;19.10;;;7.40;99.90;;;;;;4983640;28;20051;-90
2022/03/29 05:23:47;;;;;;;29.05;18.52;;;7.40;99.90;;;;;;4985093;28;20116;-87
2022/03/29 05:26:13;;;;;;;27.67;19.38;;;7.40;99.90;;;;;;4969009;28;20034;-86
2022/03/29 05:28:39;;;;;;;27.80;19.65;;;7.40;99.90;;;;;;4985156;28;20027;-87
2022/03/29 05:31:06;;;;;;;25.83;18.25;;;7.40;99.90;;;;;;4986233;28;20362;-87
2022/03/29 05:33:32;;;;;;;28.50;19.48;;;7.40;99.90;;;;;;4985204;28;20126;-87
2022/03/29 05:36:01;;;;;;;31.13;21.08;;;7.40;99.90;;;;;;4986432;28;20027;-87
2022/03/29 05:38:51;;;;;;;28.13;19.27;;;7.40;99.90;;;;;;5003223;28;20042;-86
2022/03/29 05:41:20;;;;;;;26.90;18.88;;;7.40;99.90;;;;;;4986787;28;20035;-87
2022/03/29 05:44:01;;;;;;;29.15;19.95;;;7.30;99.90;;;;;;4976185;28;20047;-87
2022/03/29 05:49:34;;;;;;;27.65;19.23;;;7.30;99.90;;;;;;5040674;23;20064;-87
2022/03/29 05:51:59;;;;;;;28.90;19.88;;;7.40;99.90;;;;;;5047945;28;20033;-88
2022/03/29 05:54:27;;;;;;;28.92;20.50;;;7.30;99.90;;;;;;5045350;28;20033;-90
2022/03/29 05:57:04;;;;;;;29.15;19.75;;;7.30;99.90;;;;;;5062013;28;20083;-90
2022/03/29 05:59:32;;;;;;;28.75;19.30;;;7.30;99.90;;;;;;5063093;28;20033;-86
2022/03/29 06:02:04;;;;;;;28.60;19.50;;;7.20;99.90;;;;;;5067780;23;20050;-84
2022/03/29 06:04:32;;;;;;;28.23;19.95;;;7.20;99.90;;;;;;5044106;28;20022;-88
2022/03/29 06:07:09;;;;;;;27.30;18.58;;;7.30;99.90;;;;;;5042597;28;20044;-85
2022/03/29 06:09:38;;;;;;;26.75;18.02;;;7.30;99.90;;;;;;5027380;28;20038;-89
2022/03/29 06:12:05;;;;;;;27.85;18.63;;;7.30;99.90;;;;;;5039586;28;20025;-89
2022/03/29 06:14:31;;;;;;;27.60;19.60;;;7.30;99.90;;;;;;5042058;28;20391;-91
2022/03/29 06:16:57;;;;;;;27.67;18.85;;;7.30;99.90;;;;;;5039336;28;20022;-88
2022/03/29 06:19:32;;;;;;;28.23;19.38;;;7.30;99.90;;;;;;5043998;28;20049;-86
2022/03/29 06:22:19;;;;;;;27.90;18.92;;;7.40;99.90;;;;;;5045321;28;20052;-85
2022/03/29 06:24:58;;;;;;;26.52;17.38;;;7.40;99.90;;;;;;5042725;28;20025;-85
2022/03/29 06:27:24;;;;;;;24.48;16.92;;;7.40;99.90;;;;;;5042368;28;20018;-88
2022/03/29 06:29:52;;;;;;;25.70;17.23;;;7.40;99.90;;;;;;5042541;28;20029;-86
2022/03/29 06:32:19;;;;;;;27.23;18.85;;;7.50;99.90;;;;;;5040847;28;20039;-89
2022/03/29 06:34:45;;;;;;;25.23;16.90;;;7.50;99.90;;;;;;5038120;28;20005;-89
2022/03/29 06:37:11;;;;;;;26.02;17.73;;;7.50;99.90;;;;;;5035174;28;20030;-90
2022/03/29 06:39:39;;;;;;;30.98;20.50;;;7.60;99.90;;;;;;5034797;28;20018;-90
2022/03/29 06:42:05;;;;;;;30.83;19.98;;;7.60;99.90;;;;;;5037302;28;20037;-85
2022/03/29 06:44:33;;;;;;;31.77;19.05;;;7.50;99.90;;;;;;5035511;28;20060;-88
2022/03/29 06:47:00;;;;;;;30.08;19.60;;;7.60;99.90;;;;;;5033036;28;20022;-88
2022/03/29 06:49:26;;;;;;;33.63;21.88;;;7.60;99.90;;;;;;5033703;28;20018;-89
2022/03/29 06:51:53;;;;;;;34.08;22.25;;;7.50;99.90;;;;;;5035117;28;20163;-91
2022/03/29 06:54:19;;;;;;;33.92;22.55;;;7.50;99.90;;;;;;5033565;28;20013;-84
2022/03/29 06:56:44;;;;;;;33.95;22.75;;;7.50;99.90;;;;;;5035688;28;20017;-90
2022/03/29 06:59:10;;;;;;;33.10;22.27;;;7.50;99.90;;;;;;5036186;28;20383;-88
2022/03/29 07:01:37;;;;;;;39.65;25.90;;;7.50;99.90;;;;;;5034583;28;20049;-89
2022/03/29 07:04:04;;;;;;;34.80;22.17;;;7.50;99.90;;;;;;5034313;28;20036;-88
2022/03/29 07:06:31;;;;;;;33.95;22.30;;;7.40;99.90;;;;;;5034710;28;20491;-87
2022/03/29 07:11:46;;;;;;;24.85;17.23;;;7.50;99.90;;;;;;5040024;28;20044;-87
2022/03/29 07:14:12;;;;;;;25.98;18.13;;;7.50;99.90;;;;;;5044051;28;20017;-85
2022/03/29 07:16:39;;;;;;;23.45;16.55;;;7.60;99.90;;;;;;5043601;28;20018;-85
2022/03/29 07:19:08;;;;;;;25.88;18.25;;;7.60;99.90;;;;;;5040454;28;20018;-86
2022/03/29 07:21:34;;;;;;;29.42;19.35;;;7.60;99.90;;;;;;5044509;28;20056;-86
2022/03/29 07:24:01;;;;;;;30.65;20.73;;;7.70;99.90;;;;;;5057398;28;20033;-85
2022/03/29 07:26:30;;;;;;;30.80;21.17;;;7.60;99.90;;;;;;5039986;28;20057;-86
2022/03/29 07:28:56;;;;;;;28.70;19.95;;;7.60;99.90;;;;;;5041057;28;20033;-89
2022/03/29 07:31:22;;;;;;;33.13;22.33;;;7.50;99.90;;;;;;5039749;28;20029;-88
2022/03/29 07:33:49;;;;;;;32.70;21.13;;;7.50;99.90;;;;;;5037233;28;20511;-87
2022/03/29 07:36:15;;;;;;;32.08;21.40;;;7.50;99.90;;;;;;5036926;28;20022;-87
2022/03/29 07:38:41;;;;;;;34.53;23.35;;;7.40;99.90;;;;;;5036860;28;20029;-89
2022/03/29 07:41:07;;;;;;;37.67;24.15;;;7.40;99.90;;;;;;5036506;28;20040;-88
2022/03/29 07:43:32;;;;;;;32.35;21.35;;;7.40;99.90;;;;;;5038584;28;20120;-88
2022/03/29 07:45:59;;;;;;;29.70;19.42;;;7.30;99.90;;;;;;5037832;28;20460;-89
2022/03/29 07:48:25;;;;;;;31.20;20.58;;;7.40;99.90;;;;;;5036380;28;20025;-88
2022/03/29 07:50:51;;;;;;;30.50;20.77;;;7.40;99.90;;;;;;5036631;28;20026;-88
2022/03/29 07:53:17;;;;;;;30.65;19.85;;;7.50;99.90;;;;;;5036479;28;20034;-88
2022/03/29 07:55:43;;;;;;;33.10;21.48;;;7.50;99.90;;;;;;5036506;28;20495;-86
2022/03/29 07:58:09;;;;;;;37.65;21.55;;;7.60;99.90;;;;;;5037713;28;20482;-86
2022/03/29 08:00:35;;;;;;;32.50;21.38;;;7.60;99.90;;;;;;5036636;28;21913;-88
2022/03/29 08:03:16;;;;;;;36.20;23.52;;;7.60;99.90;;;;;;5036114;28;20586;-89
2022/03/29 08:05:43;;;;;;;35.20;22.15;;;7.60;99.90;;;;;;5036221;28;20476;-90
2022/03/29 08:08:13;;;;;;;33.00;22.05;;;7.60;99.90;;;;;;5037060;28;20025;-88
2022/03/29 08:10:39;;;;;;;32.45;21.30;;;7.70;99.90;;;;;;5038800;28;20391;-88
2022/03/29 08:13:08;;;;;;;30.77;19.33;;;7.80;99.90;;;;;;5037908;28;20032;-88
2022/03/29 08:15:35;;;;;;;31.75;20.48;;;7.80;99.90;;;;;;5037765;28;20036;-89
2022/03/29 08:18:02;;;;;;;31.25;19.95;;;7.90;99.90;;;;;;5037445;28;20018;-88
2022/03/29 08:20:29;;;;;;;29.02;19.05;;;8.00;99.90;;;;;;5038275;28;20527;-89
2022/03/29 08:23:00;;;;;;;38.17;23.58;;;8.00;99.90;;;;;;5054430;28;20040;-88
2022/03/29 08:25:26;;;;;;;37.33;22.55;;;8.10;99.90;;;;;;5039306;28;20076;-89
2022/03/29 08:27:54;;;;;;;36.42;23.58;;;8.10;99.90;;;;;;5036291;28;20025;-90
2022/03/29 08:30:20;;;;;;;31.77;21.90;;;8.10;99.90;;;;;;5036188;28;20018;-90
2022/03/29 08:32:45;;;;;;;33.17;21.55;;;8.20;99.90;;;;;;5037641;28;20036;-88
2022/03/29 08:35:12;;;;;;;37.67;24.90;;;8.20;99.90;;;;;;5039683;28;20024;-87
2022/03/29 08:37:39;;;;;;;37.38;25.05;;;8.30;99.90;;;;;;5038360;28;20029;-89
2022/03/29 08:40:09;;;;;;;39.80;26.05;;;8.30;99.90;;;;;;5036923;28;20020;-85
2022/03/29 08:42:35;;;;;;;37.85;25.33;;;8.30;99.90;;;;;;5034336;28;20038;-88
2022/03/29 08:45:06;;;;;;;38.42;25.83;;;8.40;99.90;;;;;;5035936;28;20025;-89
2022/03/29 08:47:33;;;;;;;37.63;25.35;;;8.50;99.90;;;;;;5036914;28;20018;-90
2022/03/29 08:50:00;;;;;;;39.17;25.10;;;8.60;99.90;;;;;;5036224;28;20025;-89
2022/03/29 08:52:27;;;;;;;39.05;25.77;;;8.70;99.90;;;;;;5027703;28;20018;-87
2022/03/29 08:54:53;;;;;;;45.63;28.98;;;8.80;99.90;;;;;;5039222;28;20110;-89
2022/03/29 08:57:20;;;;;;;41.08;26.88;;;8.80;99.90;;;;;;5041678;28;20052;-88
2022/03/29 08:59:46;;;;;;;41.33;26.05;;;8.80;99.90;;;;;;5038195;28;20025;-89
2022/03/29 09:02:17;;;;;;;39.35;25.25;;;8.80;99.90;;;;;;5034828;28;20053;-88
2022/03/29 09:05:09;;;;;;;41.78;28.15;;;8.90;99.90;;;;;;5039300;28;20476;-89
2022/03/29 09:07:54;;;;;;;38.28;25.52;;;9.10;99.90;;;;;;5035245;28;20021;-89
2022/03/29 09:10:43;;;;;;;36.13;24.00;;;9.10;99.90;;;;;;5035568;28;20446;-89
2022/03/29 09:13:27;;;;;;;36.42;24.30;;;9.20;99.90;;;;;;5035454;28;20017;-88
2022/03/29 09:15:55;;;;;;;36.63;23.00;;;9.40;99.90;;;;;;5035817;28;20029;-89
2022/03/29 09:18:21;;;;;;;34.97;23.20;;;9.70;99.90;;;;;;5034894;28;20495;-87
2022/03/29 09:21:24;;;;;;;36.95;23.92;;;10.00;99.90;;;;;;5034361;28;20127;-89
2022/03/29 09:24:17;;;;;;;35.05;22.85;;;10.30;99.90;;;;;;5034689;28;20022;-86
2022/03/29 09:26:49;;;;;;;35.38;23.75;;;10.60;99.90;;;;;;5031953;28;20032;-86
2022/03/29 09:29:22;;;;;;;42.53;28.15;;;10.60;99.90;;;;;;5034657;28;20103;-88
2022/03/29 09:32:09;;;;;;;;;;;10.60;99.90;;;;;;5035775;28;20369;-90
2022/03/29 09:34:35;;;;;;;44.00;27.58;;;10.50;99.90;;;;;;5020402;28;20408;-88
2022/03/29 09:37:03;;;;;;;39.72;26.88;;;10.30;99.90;;;;;;5033865;28;20166;-88
2022/03/29 09:39:41;;;;;;;39.90;27.15;;;10.30;99.90;;;;;;5034793;28;20021;-86
2022/03/29 09:42:15;;;;;;;39.35;25.75;;;10.30;99.90;;;;;;5034378;28;20119;-89
2022/03/29 09:44:44;;;;;;;35.65;23.27;;;10.30;99.90;;;;;;5033843;28;20488;-89
2022/03/29 09:47:13;;;;;;;41.25;28.25;;;10.40;99.90;;;;;;5035251;28;20025;-89
2022/03/29 09:49:59;;;;;;;40.17;26.85;;;10.70;99.90;;;;;;5033483;28;20099;-88
2022/03/29 09:52:36;;;;;;;36.25;24.80;;;11.30;99.90;;;;;;5034178;28;20021;-85
2022/03/29 09:55:15;;;;;;;34.83;23.35;;;12.30;99.90;;;;;;5033258;28;20021;-87
2022/03/29 09:57:50;;;;;;;32.00;22.30;;;13.20;99.90;;;;;;5034767;28;20113;-87
2022/03/29 10:00:18;;;;;;;32.67;23.08;;;14.20;99.90;;;;;;5033257;28;20021;-88
2022/03/29 10:02:47;;;;;;;29.02;21.50;;;15.00;99.90;;;;;;5033881;28;20046;-88
2022/03/29 10:05:16;;;;;;;32.25;22.15;;;15.30;99.90;;;;;;5034442;28;20044;-88
2022/03/29 10:09:25;;;;;;;29.85;20.30;;;15.50;99.90;;;;;;5037446;28;20029;-87
2022/03/29 10:10:46;;;;;;;30.65;21.45;;;15.30;99.90;;;;;;5024290;28;20025;-88
2022/03/29 10:13:13;;;;;;;29.25;21.02;;;15.20;99.90;;;;;;5033983;28;20025;-88
2022/03/29 10:15:41;;;;;;;28.85;21.67;;;15.20;99.90;;;;;;5035204;28;20369;-83
2022/03/29 10:18:07;;;;;;;28.27;21.35;;;15.20;99.90;;;;;;5039435;28;20463;-86
2022/03/29 10:20:34;;;;;;;36.50;26.80;;;15.20;99.90;;;;;;5035336;28;20056;-86
2022/03/29 10:22:59;;;;;;;31.23;24.08;;;15.30;99.90;;;;;;5034326;28;20013;-88
2022/03/29 10:25:29;;;;;;;31.10;22.83;;;15.40;99.90;;;;;;5032897;28;20031;-88
2022/03/29 10:27:56;;;;;;;30.85;23.45;;;15.90;99.90;;;;;;5033651;28;20053;-90
2022/03/29 10:30:39;;;;;;;30.45;21.80;;;16.50;99.90;;;;;;5032178;28;20024;-88
2022/03/29 10:33:23;;;;;;;31.38;23.13;;;17.10;99.90;;;;;;5031889;28;20040;-88
2022/03/29 10:36:12;;;;;;;28.35;21.25;;;17.60;99.90;;;;;;5033895;28;20029;-87
2022/03/29 10:41:28;;;;;;;26.85;19.88;;;18.30;99.90;;;;;;5039586;28;20044;-88
2022/03/29 10:44:05;;;;;;;40.78;30.92;;;18.60;99.90;;;;;;5042418;28;20025;-88
2022/03/29 10:46:49;;;;;;;33.80;24.00;;;18.70;98.60;;;;;;5029135;28;20075;-89
2022/03/29 10:49:32;;;;;;;27.50;21.00;;;19.00;99.00;;;;;;5038883;28;20032;-88
2022/03/29 10:52:07;;;;;;;27.58;22.30;;;19.40;98.50;;;;;;5040153;28;20128;-87
2022/03/29 10:54:37;;;;;;;25.38;20.35;;;19.70;98.00;;;;;;5027142;28;20040;-90
2022/03/29 10:57:18;;;;;;;24.30;19.80;;;19.90;97.80;;;;;;5043918;28;20099;-86
2022/03/29 10:59:50;;;;;;;24.77;19.35;;;20.10;97.80;;;;;;5045163;28;20048;-87
2022/03/29 11:02:19;;;;;;;25.73;20.73;;;20.10;97.20;;;;;;5040538;28;20060;-91
2022/03/29 11:05:04;;;;;;;25.52;20.63;;;20.00;97.30;;;;;;5023206;28;20042;-89
2022/03/29 11:07:35;;;;;;;27.15;21.55;;;20.30;96.90;;;;;;5039280;28;20159;-90
2022/03/29 11:10:16;;;;;;;34.47;26.92;;;20.60;96.10;;;;;;5038146;28;20029;-89
2022/03/29 11:12:53;;;;;;;26.50;21.75;;;20.30;94.20;;;;;;5039195;28;20037;-89
2022/03/29 11:15:25;;;;;;;26.33;21.38;;;20.40;94.70;;;;;;5038143;28;20029;-90
2022/03/29 11:17:52;;;;;;;24.38;20.08;;;20.70;94.20;;;;;;5041623;28;20679;-89
2022/03/29 11:20:32;;;;;;;27.20;20.98;;;20.80;93.90;;;;;;5038714;28;20030;-89
2022/03/29 11:23:00;;;;;;;30.15;23.67;;;21.30;93.10;;;;;;5029279;28;20057;-88
2022/03/29 11:25:26;;;;;;;25.50;21.02;;;21.60;92.90;;;;;;5038373;28;20021;-87
2022/03/29 11:27:52;;;;;;;25.58;20.58;;;21.80;92.70;;;;;;5038351;28;20017;-89
2022/03/29 11:30:18;;;;;;;24.13;18.77;;;22.00;92.20;;;;;;5037849;28;20112;-90
2022/03/29 11:32:46;;;;;;;21.08;17.98;;;22.10;91.90;;;;;;5020380;28;20091;-90
2022/03/29 11:35:12;;;;;;;22.25;17.85;;;22.20;91.70;;;;;;5018615;28;20022;-88
2022/03/29 11:37:43;;;;;;;19.52;16.60;;;22.20;91.50;;;;;;5025403;28;20022;-90
2022/03/29 11:40:11;;;;;;;23.70;20.15;;;22.40;91.50;;;;;;5037299;28;20021;-90
2022/03/29 11:42:53;;;;;;;25.70;20.90;;;22.70;90.50;;;;;;5043913;28;20048;-87
2022/03/29 11:45:27;;;;;;;20.45;17.92;;;22.70;90.40;;;;;;5041549;28;20029;-88
2022/03/29 11:48:02;;;;;;;21.95;17.73;;;22.80;90.10;;;;;;5043762;28;20029;-88
2022/03/29 11:50:44;;;;;;;23.60;19.55;;;23.10;89.40;;;;;;5039344;28;20036;-88
2022/03/29 11:53:27;;;;;;;21.30;18.27;;;23.20;88.20;;;;;;5045259;28;20026;-86
2022/03/29 11:55:55;;;;;;;20.08;16.52;;;23.40;87.70;;;;;;5041864;28;20036;-88
2022/03/29 11:58:31;;;;;;;19.02;17.02;;;23.60;88.60;;;;;;5039340;28;20144;-89
2022/03/29 12:01:03;;;;;;;20.63;17.90;;;23.70;88.10;;;;;;5039845;28;20042;-86
2022/03/29 12:03:33;;;;;;;16.85;14.98;;;23.80;86.90;;;;;;5043049;28;20045;-87
2022/03/29 12:06:04;;;;;;;18.50;16.50;;;24.10;86.90;;;;;;5040678;28;20551;-88
2022/03/29 12:08:55;;;;;;;26.25;22.23;;;24.60;85.50;;;;;;5037620;28;20043;-89
2022/03/29 12:11:35;;;;;;;21.52;17.80;;;24.70;83.50;;;;;;5022978;28;20369;-89
2022/03/29 12:14:04;;;;;;;18.27;16.15;;;24.60;83.00;;;;;;5037600;28;20018;-88
2022/03/29 12:16:33;;;;;;;19.60;15.98;;;24.70;83.10;;;;;;5036867;28;20037;-91
2022/03/29 12:18:59;;;;;;;19.42;17.33;;;24.70;82.60;;;;;;5055458;28;20014;-87
2022/03/29 12:21:25;;;;;;;19.95;17.95;;;24.80;81.10;;;;;;5039141;28;20037;-89
2022/03/29 12:24:11;;;;;;;22.42;18.73;;;24.70;81.30;;;;;;5036553;28;20403;-91
2022/03/29 12:26:48;;;;;;;22.30;17.92;;;24.90;81.90;;;;;;5039054;28;20618;-92
2022/03/29 12:29:20;;;;;;;19.67;17.05;;;24.80;80.00;;;;;;5035467;28;20025;-89
2022/03/29 12:31:48;;;;;;;21.17;18.45;;;24.80;79.20;;;;;;5035147;28;20033;-90
2022/03/29 12:34:19;;;;;;;20.58;17.30;;;24.60;79.90;;;;;;5035949;28;20033;-89
2022/03/29 12:36:59;;;;;;;20.90;17.50;;;24.60;79.20;;;;;;5036681;28;20032;-89
2022/03/29 12:39:35;;;;;;;21.00;17.73;;;24.80;77.80;;;;;;5036963;28;20029;-91
2022/03/29 12:42:01;;;;;;;23.10;18.45;;;24.60;78.20;;;;;;5036853;28;20053;-90
2022/03/29 12:44:43;;;;;;;20.13;17.00;;;24.50;78.10;;;;;;5036584;28;20030;-89
2022/03/29 12:47:09;;;;;;;16.33;14.50;;;24.80;76.90;;;;;;5022978;28;20025;-86
2022/03/29 12:49:36;;;;;;;16.70;13.75;;;24.90;76.40;;;;;;5055863;28;20032;-89
2022/03/29 12:52:05;;;;;;;16.30;14.60;;;25.20;75.80;;;;;;5042820;28;20025;-86
2022/03/29 12:54:34;;;;;;;17.38;14.63;;;25.20;75.80;;;;;;5041588;28;20041;-87
2022/03/29 12:57:01;;;;;;;17.92;15.43;;;25.50;75.10;;;;;;5041114;28;20032;-87